Time;durP1;ratioP1;P1;durP2;ratioP2;P2;SDS_P1;SDS_P2;PMS_P1;PMS_P2;Temp;Humidity;BMP_temperature;BMP_pressure;BME280_temperature;BME280_humidity;BME280_pressure;Samples;Min_cycle;Max_cycle;Signal;HPM_P1;HPM_P2
2022/06/12 00:02:14;;;;;;;7.35;5.85;;;;;;;26.84;37.23;99253.28;4976536;28;20337;-73
2022/06/12 00:04:40;;;;;;;12.55;6.28;;;;;;;26.82;37.05;99241.84;4944814;28;20053;-72
2022/06/12 00:07:06;;;;;;;11.32;5.95;;;;;;;26.95;37.15;99247.59;4976581;28;20100;-73
2022/06/12 00:09:31;;;;;;;10.68;5.30;;;;;;;26.98;37.01;99247.03;4976356;28;20042;-72
2022/06/12 00:11:57;;;;;;;9.48;4.53;;;;;;;26.93;36.35;99249.75;4960198;28;20042;-72
2022/06/12 00:14:23;;;;;;;7.85;4.93;;;;;;;26.82;35.67;99244.56;4976404;28;20054;-73
2022/06/12 00:16:52;;;;;;;8.18;5.05;;;;;;;26.84;36.36;99245.13;4944549;28;20085;-72
2022/06/12 00:19:19;;;;;;;6.28;4.82;;;;;;;27.09;36.41;99253.31;4976956;28;20046;-72
2022/06/12 00:21:45;;;;;;;7.32;4.68;;;;;;;27.13;36.53;99248.91;4976145;28;20534;-73
2022/06/12 00:24:14;;;;;;;6.85;5.00;;;;;;;27.31;36.54;99251.09;4992504;28;20077;-72
2022/06/12 00:26:47;;;;;;;6.72;4.43;;;;;;;27.11;36.03;99229.31;4992584;28;20073;-72
2022/06/12 00:29:20;;;;;;;8.73;4.28;;;;;;;27.14;36.38;99250.56;4993737;28;20046;-72
2022/06/12 00:31:50;;;;;;;7.15;4.03;;;;;;;27.04;35.12;99245.13;4975982;28;20468;-72
2022/06/12 00:34:19;;;;;;;12.00;4.65;;;;;;;27.14;35.80;99245.13;4992056;28;20108;-71
2022/06/12 00:36:44;;;;;;;9.45;4.65;;;;;;;26.81;36.13;99249.22;4975441;28;20050;-71
2022/06/12 00:39:10;;;;;;;10.15;4.55;;;;;;;26.71;35.77;99259.31;5008131;28;20041;-72
2022/06/12 00:41:38;;;;;;;6.82;4.40;;;;;;;26.55;36.16;99263.06;4959786;28;20047;-72
2022/06/12 00:44:04;;;;;;;13.88;5.40;;;;;;;26.29;37.04;99265.72;4975859;28;20050;-71
2022/06/12 00:46:35;;;;;;;13.90;6.13;;;;;;;26.19;37.64;99268.44;4975689;28;20042;-71
2022/06/12 00:49:08;;;;;;;14.15;5.97;;;;;;;26.08;37.82;99230.53;4991850;28;20093;-72
2022/06/12 00:51:34;;;;;;;10.05;6.80;;;;;;;25.97;38.41;99234.31;4991998;28;20049;-71
2022/06/12 00:54:00;;;;;;;9.20;5.70;;;;;;;25.79;38.49;99211.09;4959569;28;20462;-71
2022/06/12 00:56:33;;;;;;;19.20;6.38;;;;;;;26.33;38.94;99257.84;4991874;28;20053;-73
2022/06/12 00:59:04;;;;;;;15.20;7.30;;;;;;;26.34;40.31;99249.41;4959315;28;20038;-72
2022/06/12 01:01:33;;;;;;;8.80;6.72;;;;;;;26.42;40.50;99264.38;4991971;28;20046;-71
2022/06/12 01:06:50;;;;;;;11.15;5.60;;;;;;;26.39;39.08;99254.88;4977788;28;20046;-72
2022/06/12 01:09:22;;;;;;;7.28;5.38;;;;;;;26.51;38.88;99259.25;4959533;28;20416;-72
2022/06/12 01:11:49;;;;;;;11.02;6.10;;;;;;;26.45;39.78;99263.84;5007538;28;20049;-72
2022/06/12 01:14:18;;;;;;;10.90;6.32;;;;;;;26.43;39.11;99266.84;4991354;28;20916;-72
2022/06/12 01:16:48;;;;;;;14.13;6.32;;;;;;;26.41;39.41;99273.66;4991487;28;20042;-72
2022/06/12 01:19:23;;;;;;;11.75;5.75;;;;;;;26.63;39.00;99273.44;4976174;28;20069;-73
2022/06/12 01:22:00;;;;;;;9.05;5.93;;;;;;;26.63;39.12;99274.28;4991254;28;20057;-71
2022/06/12 01:24:55;;;;;;;10.75;6.00;;;;;;;26.66;38.81;99268.28;4975201;28;20050;-73
2022/06/12 01:27:44;;;;;;;11.02;5.45;;;;;;;26.67;38.11;99269.09;4991332;28;20416;-72
2022/06/12 01:30:28;;;;;;;9.93;6.07;;;;;;;26.72;38.67;99274.56;4959309;28;20050;-73
2022/06/12 01:33:09;;;;;;;13.90;6.43;;;;;;;26.59;38.93;99245.06;4991762;28;20432;-72
2022/06/12 01:35:47;;;;;;;9.50;6.35;;;;;;;26.74;39.27;99275.91;4958843;28;20046;-72
2022/06/12 01:38:25;;;;;;;7.60;5.88;;;;;;;26.71;40.15;99273.72;4974767;28;20049;-72
2022/06/12 01:41:04;;;;;;;8.10;5.90;;;;;;;26.75;39.39;99263.94;4975373;28;20042;-71
2022/06/12 01:43:43;;;;;;;9.70;5.82;;;;;;;26.78;39.12;99257.13;4974717;28;20096;-72
2022/06/12 01:46:20;;;;;;;12.02;6.40;;;;;;;26.95;38.92;99266.66;4959594;28;20109;-72
2022/06/12 01:49:06;;;;;;;19.35;6.72;;;;;;;27.00;39.09;99265.84;4989826;28;20042;-71
2022/06/12 01:51:40;;;;;;;7.78;6.15;;;;;;;26.93;39.15;99266.13;5006693;28;20062;-72
2022/06/12 01:54:29;;;;;;;9.80;6.03;;;;;;;26.89;39.46;99261.47;4992092;28;20136;-73
2022/06/12 01:57:16;;;;;;;13.38;6.68;;;;;;;27.02;39.71;99269.09;4975043;28;20129;-72
2022/06/12 02:00:08;;;;;;;8.18;6.65;;;;;;;26.97;40.12;99263.66;4958266;28;20061;-72
2022/06/12 02:02:45;;;;;;;9.60;6.60;;;;;;;26.99;40.51;99270.47;4990499;28;20057;-72
2022/06/12 02:05:22;;;;;;;15.05;6.97;;;;;;;26.74;41.16;99280.56;4958044;28;20050;-73
2022/06/12 02:08:09;;;;;;;10.18;7.15;;;;;;;26.92;41.38;99264.50;4990614;28;20053;-72
2022/06/12 02:10:42;;;;;;;12.57;6.32;;;;;;;26.95;40.45;99268.56;4942090;28;20046;-71
2022/06/12 02:13:16;;;;;;;9.45;6.45;;;;;;;26.95;39.82;99274.84;4958478;28;20041;-72
2022/06/12 02:15:43;;;;;;;15.63;6.00;;;;;;;26.78;40.05;99273.47;4990490;28;20046;-72
2022/06/12 02:18:31;;;;;;;11.70;6.57;;;;;;;27.15;39.36;99280.28;4974071;28;20466;-72
2022/06/12 02:21:09;;;;;;;10.00;5.80;;;;;;;26.94;39.38;99281.38;4990635;28;20049;-72
2022/06/12 02:23:50;;;;;;;9.02;5.72;;;;;;;26.98;39.08;99276.19;4942102;28;20046;-72
2022/06/12 02:26:19;;;;;;;14.63;5.78;;;;;;;26.90;39.63;99276.75;4990241;28;20050;-72
2022/06/12 02:28:49;;;;;;;8.68;6.18;;;;;;;26.95;39.48;99276.75;4990394;28;20420;-72
2022/06/12 02:31:19;;;;;;;6.82;5.15;;;;;;;26.90;38.51;99274.84;4990311;28;20050;-71
2022/06/12 02:33:49;;;;;;;9.52;5.40;;;;;;;26.94;38.66;99281.38;4958002;28;20053;-71
2022/06/12 02:36:25;;;;;;;10.95;5.50;;;;;;;27.01;39.17;99284.66;4989880;28;20042;-72
2022/06/12 02:39:10;;;;;;;11.73;5.40;;;;;;;27.09;39.37;99284.13;4973831;28;20581;-73
2022/06/12 02:41:44;;;;;;;15.13;5.30;;;;;;;27.07;38.52;99283.56;5006304;28;20045;-72
2022/06/12 02:44:15;;;;;;;13.25;5.20;;;;;;;27.18;37.99;99287.09;4989946;28;20042;-73
2022/06/12 02:46:52;;;;;;;12.02;5.97;;;;;;;27.22;38.20;99288.19;4973724;28;20058;-72
2022/06/12 02:49:18;;;;;;;16.60;5.95;;;;;;;27.13;38.16;99279.75;4973672;28;20104;-72
2022/06/12 02:52:07;;;;;;;14.43;6.22;;;;;;;27.10;38.26;99282.19;4973734;28;20078;-72
2022/06/12 02:54:47;;;;;;;12.82;6.32;;;;;;;27.44;38.60;99273.19;4973751;28;20043;-72
2022/06/12 02:57:24;;;;;;;15.45;6.57;;;;;;;27.51;39.00;99281.06;4973552;28;20054;-73
2022/06/12 03:00:03;;;;;;;18.85;6.70;;;;;;;27.64;39.13;99280.50;4989869;28;20057;-72
2022/06/12 03:02:49;;;;;;;9.30;6.85;;;;;;;27.51;39.51;99264.69;4977963;28;20038;-71
2022/06/12 03:05:22;;;;;;;13.63;6.68;;;;;;;27.49;39.45;99270.44;4961616;28;20050;-71
2022/06/12 03:07:51;;;;;;;14.15;5.75;;;;;;;27.74;38.50;99288.66;4961516;28;20515;-72
2022/06/12 03:10:20;;;;;;;9.15;5.30;;;;;;;27.75;37.19;99276.66;4977438;28;20050;-72
2022/06/12 03:12:46;;;;;;;9.85;5.03;;;;;;;27.66;35.79;99279.13;5010029;28;20054;-72
2022/06/12 03:15:34;;;;;;;9.35;4.20;;;;;;;27.65;35.07;99287.59;4945650;28;20068;-72
2022/06/12 03:18:01;;;;;;;8.93;3.95;;;;;;;27.29;34.96;99280.56;4961419;28;20046;-72
2022/06/12 03:20:32;;;;;;;7.00;4.07;;;;;;;27.40;35.38;99283.00;4994922;28;20050;-73
2022/06/12 03:23:11;;;;;;;6.55;3.63;;;;;;;27.67;35.44;99296.31;4993850;28;20042;-72
2022/06/12 03:25:47;;;;;;;7.18;3.65;;;;;;;27.75;35.44;99290.31;4945222;28;20042;-71
2022/06/12 03:28:26;;;;;;;8.20;4.03;;;;;;;27.83;35.37;99303.38;5009337;28;20088;-72
2022/06/12 03:31:05;;;;;;;6.38;3.55;;;;;;;27.90;35.01;99293.84;4977117;28;20169;-73
2022/06/12 03:33:33;;;;;;;4.22;3.20;;;;;;;27.78;35.18;99300.66;4977771;28;20046;-72
2022/06/12 03:36:08;;;;;;;6.70;3.13;;;;;;;28.06;34.43;99294.59;4961352;28;20050;-73
2022/06/12 03:38:46;;;;;;;5.65;2.95;;;;;;;28.11;34.29;99305.47;5010028;28;20057;-72
2022/06/12 03:41:20;;;;;;;7.45;3.00;;;;;;;28.17;34.08;99301.63;4945875;28;20092;-72
2022/06/12 03:44:00;;;;;;;4.70;3.05;;;;;;;28.36;33.69;99305.38;4960896;28;20042;-72
2022/06/12 03:46:47;;;;;;;5.05;2.78;;;;;;;28.50;32.63;99314.59;4994466;28;20080;-71
2022/06/12 03:49:38;;;;;;;4.00;2.70;;;;;;;28.50;32.96;99287.28;4960992;28;20046;-72
2022/06/12 03:52:22;;;;;;;4.60;2.92;;;;;;;28.71;33.08;99299.72;4977476;28;20084;-71
2022/06/12 03:55:08;;;;;;;6.78;3.30;;;;;;;28.69;33.48;99301.09;4992746;28;20038;-72
2022/06/12 03:57:53;;;;;;;4.90;3.22;;;;;;;28.80;33.49;99306.19;4977010;28;20042;-73
2022/06/12 04:00:27;;;;;;;6.00;3.70;;;;;;;28.83;33.45;99322.03;4976497;28;20477;-72
2022/06/12 04:03:03;;;;;;;5.63;3.20;;;;;;;28.82;33.47;99317.69;4960422;28;20038;-74
2022/06/12 04:05:41;;;;;;;5.18;3.83;;;;;;;28.81;33.44;99310.59;4992544;28;20104;-72
2022/06/12 04:08:12;;;;;;;5.38;3.78;;;;;;;28.82;33.41;99308.66;4992732;28;20594;-72
2022/06/12 04:10:38;;;;;;;;;;;;;;;29.03;32.95;99312.88;4976923;28;20408;-72
2022/06/12 04:13:07;;;;;;;12.43;3.45;;;;;;;28.88;32.79;99289.19;4943540;28;20321;-73
2022/06/12 04:15:42;;;;;;;11.57;3.45;;;;;;;29.13;32.95;99316.38;4993074;28;20050;-72
2022/06/12 04:18:08;;;;;;;12.95;3.67;;;;;;;29.05;33.46;99314.25;4976583;28;20049;-73
2022/06/12 04:20:37;;;;;;;11.77;4.15;;;;;;;29.15;33.50;99308.69;4977005;28;20085;-71
2022/06/12 04:23:37;;;;;;;11.82;4.32;;;;;;;29.15;34.01;99300.47;4960584;28;20137;-72
2022/06/12 04:26:24;;;;;;;12.07;5.00;;;;;;;29.28;33.91;99320.91;4989962;28;20058;-72
2022/06/12 04:29:00;;;;;;;11.82;4.93;;;;;;;29.26;33.55;99321.19;4960814;28;20145;-72
2022/06/12 04:31:28;;;;;;;11.80;5.18;;;;;;;29.19;33.92;99306.19;4945248;28;20046;-72
2022/06/12 04:34:24;;;;;;;17.10;5.32;;;;;;;29.29;33.53;99309.66;4994542;28;20707;-73
2022/06/12 04:36:54;;;;;;;10.77;5.13;;;;;;;29.19;33.97;99307.03;4944901;28;20124;-73
2022/06/12 04:39:23;;;;;;;13.45;5.20;;;;;;;29.17;33.74;99309.22;4992966;28;20042;-72
2022/06/12 04:41:50;;;;;;;12.35;5.20;;;;;;;29.13;33.51;99316.38;4944380;28;20144;-71
2022/06/12 04:44:16;;;;;;;12.57;4.85;;;;;;;28.89;33.22;99290.81;4992180;28;20030;-72
2022/06/12 04:46:44;;;;;;;9.10;4.32;;;;;;;29.09;33.16;99303.56;4975744;28;20480;-72
2022/06/12 04:49:13;;;;;;;6.35;4.22;;;;;;;29.04;33.03;99315.34;4992139;28;20049;-72
2022/06/12 04:51:40;;;;;;;6.23;4.47;;;;;;;28.92;33.55;99312.13;4992069;28;20050;-72
2022/06/12 04:54:05;;;;;;;7.50;4.68;;;;;;;28.84;33.53;99312.75;4975806;28;20041;-73
2022/06/12 04:56:33;;;;;;;10.98;5.15;;;;;;;28.88;33.86;99302.88;4943722;28;20042;-72
2022/06/12 04:59:00;;;;;;;11.55;4.80;;;;;;;29.02;34.05;99312.06;4991995;28;20128;-72
2022/06/12 05:01:27;;;;;;;9.88;4.70;;;;;;;29.03;34.39;99308.22;4940513;28;20043;-72
2022/06/12 05:03:53;;;;;;;6.97;4.60;;;;;;;29.16;33.90;99306.78;4972322;28;20039;-72
2022/06/12 05:06:19;;;;;;;8.63;5.30;;;;;;;29.12;33.84;99314.72;4972465;28;20055;-72
2022/06/12 05:08:47;;;;;;;8.18;4.90;;;;;;;29.26;34.48;99307.50;4956168;28;20124;-72
2022/06/12 05:11:15;;;;;;;8.35;5.18;;;;;;;29.44;34.22;99312.28;4972246;28;20043;-72
2022/06/12 05:13:41;;;;;;;8.95;5.57;;;;;;;29.44;34.03;99316.94;4956244;28;20536;-72
2022/06/12 05:16:08;;;;;;;9.15;5.57;;;;;;;29.51;33.22;99310.00;4940689;28;20208;-72
2022/06/12 05:18:34;;;;;;;9.85;6.10;;;;;;;29.53;33.20;99318.75;4972361;28;20057;-72
2022/06/12 05:21:00;;;;;;;10.77;6.22;;;;;;;29.66;32.91;99311.00;4939866;28;20472;-72
2022/06/12 05:23:26;;;;;;;11.40;6.70;;;;;;;29.79;32.91;99316.59;4939614;28;20070;-72
2022/06/12 05:25:52;;;;;;;10.38;6.18;;;;;;;29.97;32.31;99318.56;4939905;28;20572;-72
2022/06/12 05:28:19;;;;;;;9.90;6.47;;;;;;;30.21;32.39;99329.56;4924206;28;20492;-72
2022/06/12 05:30:46;;;;;;;11.25;6.75;;;;;;;30.34;31.95;99321.44;4939857;28;20139;-72
2022/06/12 05:33:12;;;;;;;13.15;6.97;;;;;;;30.42;32.09;99320.78;4924060;28;20050;-72
2022/06/12 05:35:39;;;;;;;17.00;6.57;;;;;;;30.62;31.74;99316.94;4956648;28;20042;-72
2022/06/12 05:38:08;;;;;;;20.83;7.53;;;;;;;30.79;30.82;99328.22;4956321;28;20524;-72
2022/06/12 05:40:36;;;;;;;12.68;7.20;;;;;;;30.97;30.29;99321.91;4972118;28;20038;-72
2022/06/12 05:43:02;;;;;;;11.40;7.22;;;;;;;30.81;30.12;99318.63;4939809;28;20081;-74
2022/06/12 05:45:30;;;;;;;13.68;6.85;;;;;;;30.93;30.36;99315.41;4971700;28;20042;-72
2022/06/12 05:48:03;;;;;;;12.50;6.85;;;;;;;31.07;30.13;99328.06;4971489;28;20559;-72
2022/06/12 05:50:34;;;;;;;12.00;6.93;;;;;;;31.08;30.21;99328.88;4972601;28;20136;-71
2022/06/12 05:53:00;;;;;;;11.05;6.53;;;;;;;30.91;30.18;99309.38;4987709;28;20047;-71
2022/06/12 05:55:26;;;;;;;16.05;6.38;;;;;;;31.06;30.21;99323.69;4955199;28;20047;-73
2022/06/12 05:57:52;;;;;;;12.38;6.63;;;;;;;31.02;30.41;99330.06;4971560;28;20053;-73
2022/06/12 06:00:28;;;;;;;13.13;6.57;;;;;;;31.19;29.98;99324.84;4933474;28;20054;-72
2022/06/12 06:02:53;;;;;;;13.20;6.85;;;;;;;31.06;30.19;99326.41;4974610;28;20077;-72
2022/06/12 06:05:19;;;;;;;11.30;6.40;;;;;;;31.26;29.85;99332.72;4958390;28;20073;-72
2022/06/12 06:07:46;;;;;;;17.20;6.85;;;;;;;31.32;29.52;99326.88;4958389;28;20137;-73
2022/06/12 06:10:18;;;;;;;15.13;6.35;;;;;;;31.73;28.78;99332.44;4974877;28;20073;-73
2022/06/12 06:12:43;;;;;;;14.05;6.45;;;;;;;31.71;28.86;99324.50;4958812;28;20145;-72
2022/06/12 06:15:10;;;;;;;14.13;6.30;;;;;;;32.00;28.54;99318.75;4975269;28;20190;-74
2022/06/12 06:17:36;;;;;;;15.93;6.43;;;;;;;32.28;28.14;99329.44;4990790;28;20038;-72
2022/06/12 06:20:03;;;;;;;20.48;6.03;;;;;;;32.49;27.41;99322.38;4974775;28;20541;-71
2022/06/12 06:22:29;;;;;;;10.77;5.85;;;;;;;32.64;27.53;99310.25;4975038;28;20065;-73
2022/06/12 06:24:55;;;;;;;9.80;5.63;;;;;;;32.91;27.23;99321.19;4943115;28;20046;-73
2022/06/12 06:27:21;;;;;;;9.20;5.32;;;;;;;33.10;26.65;99321.00;4974947;28;20046;-73
2022/06/12 06:29:49;;;;;;;13.85;5.00;;;;;;;33.33;26.23;99326.19;4992386;28;20484;-73
2022/06/12 06:32:15;;;;;;;10.18;5.28;;;;;;;33.54;25.90;99321.00;4942077;28;20065;-73
2022/06/12 06:34:41;;;;;;;5.90;5.07;;;;;;;33.79;25.62;99320.31;4941909;28;20039;-72
2022/06/12 06:37:10;;;;;;;9.63;5.18;;;;;;;33.96;25.15;99310.22;4974050;28;20046;-72
2022/06/12 06:39:39;;;;;;;8.90;5.07;;;;;;;33.80;25.09;99308.97;4990475;28;20535;-73
2022/06/12 06:42:06;;;;;;;7.40;4.40;;;;;;;33.77;25.16;99297.78;4989962;28;20510;-73
2022/06/12 06:47:16;;;;;;;9.98;4.32;;;;;;;33.85;24.25;99299.75;4976089;28;20038;-73
2022/06/12 06:49:42;;;;;;;7.88;4.00;;;;;;;33.59;24.49;99298.84;4957918;28;20353;-72
2022/06/12 06:52:08;;;;;;;6.43;3.80;;;;;;;33.79;24.13;99301.03;4973813;28;20050;-73
2022/06/12 06:54:34;;;;;;;7.63;4.15;;;;;;;33.53;24.20;99295.41;4957595;28;20042;-72
2022/06/12 06:57:00;;;;;;;12.57;4.35;;;;;;;33.54;24.94;99283.25;4974069;28;20046;-72
2022/06/12 06:59:27;;;;;;;5.20;4.03;;;;;;;33.71;24.38;99288.84;4973671;28;20054;-73
2022/06/12 07:01:52;;;;;;;7.50;3.45;;;;;;;34.10;23.68;99285.28;4957955;28;20054;-73
2022/06/12 07:04:19;;;;;;;7.53;3.80;;;;;;;34.01;23.68;99288.00;4941910;28;20046;-73
2022/06/12 07:06:45;;;;;;;7.55;4.00;;;;;;;33.71;24.33;99291.59;4990152;28;20057;-74
2022/06/12 07:09:10;;;;;;;11.25;3.70;;;;;;;34.06;23.84;99281.53;4973965;28;20042;-73
2022/06/12 07:11:36;;;;;;;7.30;4.03;;;;;;;34.83;22.71;99292.72;4957520;28;20424;-73
2022/06/12 07:14:02;;;;;;;8.65;3.45;;;;;;;35.38;21.99;99283.44;4957613;28;20061;-73
2022/06/12 07:16:31;;;;;;;6.57;2.90;;;;;;;36.11;21.73;99287.72;4973597;28;20050;-73
2022/06/12 07:18:56;;;;;;;4.97;3.30;;;;;;;36.57;20.59;99273.78;4973515;28;20462;-76
2022/06/12 07:21:23;;;;;;;4.63;3.05;;;;;;;37.07;19.84;99282.00;4941675;28;20042;-73
2022/06/12 07:23:49;;;;;;;6.10;3.22;;;;;;;37.52;19.53;99279.28;4941822;28;20495;-74
2022/06/12 07:26:19;;;;;;;11.10;3.13;;;;;;;37.82;18.62;99281.53;4974084;28;20042;-73
2022/06/12 07:28:47;;;;;;;6.88;3.22;;;;;;;38.23;18.73;99275.78;4990481;28;20042;-73
2022/06/12 07:31:13;;;;;;;5.95;3.00;;;;;;;38.84;17.48;99284.00;4942338;28;20104;-71
2022/06/12 07:33:39;;;;;;;7.93;3.03;;;;;;;39.21;17.08;99282.72;4957497;28;20038;-72
2022/06/12 07:36:09;;;;;;;5.25;2.83;;;;;;;39.58;16.90;99276.59;4973425;28;20054;-74
2022/06/12 07:38:36;;;;;;;6.00;3.50;;;;;;;39.87;16.54;99272.59;4989599;28;20104;-73
2022/06/12 07:41:03;;;;;;;7.18;2.30;;;;;;;40.84;15.51;99283.63;4973407;28;20104;-73
2022/06/12 07:43:33;;;;;;;3.83;2.50;;;;;;;41.18;14.90;99263.28;4989692;28;20416;-73
2022/06/12 07:45:59;;;;;;;3.95;2.30;;;;;;;41.36;14.58;99254.06;4989694;28;20192;-73
2022/06/12 07:48:25;;;;;;;6.90;2.25;;;;;;;41.23;14.65;99274.09;4961001;28;20511;-73
2022/06/12 07:50:53;;;;;;;4.90;2.33;;;;;;;40.65;14.74;99266.88;5009249;28;20139;-73
2022/06/12 07:53:20;;;;;;;4.20;2.50;;;;;;;40.52;15.17;99255.06;4993085;28;20065;-73
2022/06/12 07:55:46;;;;;;;4.72;2.22;;;;;;;41.85;14.00;99272.84;4976962;28;20042;-72
2022/06/12 07:58:13;;;;;;;4.18;2.22;;;;;;;42.54;12.91;99275.16;4992662;28;20132;-73
2022/06/12 08:00:39;;;;;;;3.40;2.30;;;;;;;43.39;12.46;99275.06;4960707;28;20058;-73
2022/06/12 08:03:05;;;;;;;5.40;2.30;;;;;;;45.06;11.41;99270.28;4976698;28;20038;-73
2022/06/12 08:05:32;;;;;;;7.10;2.53;;;;;;;46.52;10.09;99266.00;4992949;28;20398;-73
2022/06/12 08:07:59;;;;;;;5.07;2.65;;;;;;;46.28;10.33;99255.63;4944227;28;20034;-73
2022/06/12 08:10:25;;;;;;;8.95;2.67;;;;;;;46.66;10.53;99260.34;4960486;28;20050;-73
2022/06/12 08:12:51;;;;;;;6.93;2.60;;;;;;;46.43;10.47;99259.19;4992740;28;20496;-73
2022/06/12 08:15:21;;;;;;;4.95;2.85;;;;;;;45.87;10.55;99257.25;4992876;28;20137;-73
2022/06/12 08:17:49;;;;;;;5.63;2.70;;;;;;;46.02;10.98;99259.66;4992893;28;20594;-72
2022/06/12 08:20:25;;;;;;;4.05;2.80;;;;;;;46.37;10.52;99263.63;4977236;28;20109;-72
2022/06/12 08:23:27;;;;;;;4.00;2.38;;;;;;;47.18;9.87;99244.47;4978098;28;20069;-73
2022/06/12 08:26:09;;;;;;;3.20;2.55;;;;;;;47.39;9.72;99252.78;4992283;28;20365;-73
2022/06/12 08:28:48;;;;;;;5.85;2.80;;;;;;;46.14;10.05;99236.78;4992351;28;20041;-73
2022/06/12 08:31:17;;;;;;;4.90;2.50;;;;;;;45.44;10.43;99242.38;5008571;28;20038;-73
2022/06/12 08:33:45;;;;;;;8.65;2.45;;;;;;;46.29;10.45;99245.97;4960312;28;20105;-72
2022/06/12 08:36:12;;;;;;;7.28;2.47;;;;;;;47.15;9.81;99246.06;4975875;28;20428;-73
2022/06/12 08:38:39;;;;;;;4.00;2.47;;;;;;;46.80;10.45;99242.59;4975939;28;20046;-73
2022/06/12 08:41:10;;;;;;;4.68;2.50;;;;;;;46.86;10.06;99243.81;4993506;28;20058;-73
2022/06/12 08:43:52;;;;;;;4.35;2.67;;;;;;;45.71;10.79;99237.97;4944038;28;20053;-71
2022/06/12 08:46:24;;;;;;;8.70;2.47;;;;;;;45.89;11.27;99230.38;4993715;28;20640;-73
2022/06/12 08:49:02;;;;;;;8.48;2.50;;;;;;;47.62;9.77;99239.75;4992434;28;20046;-73
2022/06/12 08:51:37;;;;;;;4.90;2.50;;;;;;;47.02;10.42;99230.88;4976004;28;20041;-73
2022/06/12 08:54:10;;;;;;;6.03;2.95;;;;;;;44.71;11.68;99228.91;4991994;28;20050;-73
2022/06/12 08:56:43;;;;;;;7.00;3.30;;;;;;;42.43;13.96;99229.53;4959788;28;20144;-72
2022/06/12 08:59:16;;;;;;;8.15;3.13;;;;;;;40.19;15.64;99205.41;4991331;28;20048;-73
2022/06/12 09:01:42;;;;;;;7.65;3.00;;;;;;;39.15;17.09;99229.34;4975707;28;20054;-72
2022/06/12 09:04:18;;;;;;;6.25;2.83;;;;;;;38.64;17.25;99217.19;4975941;28;20058;-73
2022/06/12 09:06:48;;;;;;;8.02;3.30;;;;;;;38.05;18.24;99198.69;4975596;28;20108;-73
2022/06/12 09:09:17;;;;;;;;;;;;;;;38.02;18.18;99216.84;4992227;28;20083;-75
2022/06/12 09:11:52;;;;;;;6.80;3.42;;;;;;;37.56;18.45;99213.69;4975736;28;20466;-73
2022/06/12 09:14:47;;;;;;;7.80;3.30;;;;;;;37.22;18.98;99214.91;4959755;28;20133;-73
2022/06/12 09:17:35;;;;;;;9.70;3.75;;;;;;;36.88;19.57;99215.25;4971683;28;20049;-72
2022/06/12 09:20:23;;;;;;;7.15;3.25;;;;;;;36.68;19.98;99218.81;4964826;28;20042;-71
2022/06/12 09:22:55;;;;;;;10.25;3.63;;;;;;;36.34;20.40;99222.69;4975940;28;20046;-72
2022/06/12 09:25:32;;;;;;;5.60;3.40;;;;;;;36.06;20.13;99221.53;4959681;28;20046;-74
2022/06/12 09:28:09;;;;;;;9.40;3.70;;;;;;;35.78;20.34;99221.19;4959695;28;20112;-72
2022/06/12 09:30:53;;;;;;;9.55;4.07;;;;;;;35.51;20.93;99215.31;4975482;28;20096;-72
2022/06/12 09:33:52;;;;;;;6.95;3.42;;;;;;;35.18;21.67;99189.41;4975214;28;20092;-72
2022/06/12 09:36:33;;;;;;;6.85;3.95;;;;;;;35.16;21.43;99209.06;4949240;28;20068;-72
2022/06/12 09:39:34;;;;;;;6.75;3.70;;;;;;;34.69;22.34;99226.66;4991321;28;20042;-73
2022/06/12 09:42:20;;;;;;;9.65;4.40;;;;;;;33.87;23.43;99206.56;4962232;28;20097;-72
2022/06/12 09:44:49;;;;;;;8.38;3.80;;;;;;;33.40;24.01;99204.63;4959493;28;20565;-72
2022/06/12 09:47:24;;;;;;;7.28;4.30;;;;;;;32.84;24.67;99190.66;4958797;28;20077;-72
2022/06/12 09:49:57;;;;;;;7.38;3.80;;;;;;;32.95;24.12;99208.56;4958985;28;20054;-72
2022/06/12 09:52:36;;;;;;;4.97;3.88;;;;;;;32.59;24.14;99206.66;4959122;28;20508;-73
2022/06/12 09:55:14;;;;;;;7.68;4.20;;;;;;;32.98;24.47;99202.44;4959032;28;20050;-72
2022/06/12 09:57:48;;;;;;;5.85;4.00;;;;;;;33.28;23.55;99207.13;4958833;28;20136;-72
2022/06/12 10:00:21;;;;;;;6.40;3.38;;;;;;;33.14;23.04;99206.41;4974919;28;20061;-72
2022/06/12 10:03:11;;;;;;;5.28;3.25;;;;;;;32.90;22.89;99208.69;4991468;28;20077;-72
2022/06/12 10:06:02;;;;;;;6.63;3.70;;;;;;;32.82;23.54;99203.91;4974833;28;20136;-72
2022/06/12 10:08:49;;;;;;;7.88;3.03;;;;;;;32.49;23.05;99195.91;4990660;28;20551;-72
2022/06/12 10:11:23;;;;;;;7.88;3.17;;;;;;;32.37;23.45;99192.06;4958285;28;20046;-73
2022/06/12 10:14:10;;;;;;;6.15;3.75;;;;;;;32.43;23.38;99188.09;4991118;28;20042;-72
2022/06/12 10:16:40;;;;;;;6.90;3.65;;;;;;;32.55;23.49;99177.38;5006907;28;20361;-72
2022/06/12 10:19:06;;;;;;;8.77;3.45;;;;;;;32.54;23.79;99182.03;4958546;28;20123;-73
2022/06/12 10:21:35;;;;;;;5.85;3.60;;;;;;;32.90;23.53;99183.94;4958288;28;20628;-72
2022/06/12 10:24:01;;;;;;;7.88;3.70;;;;;;;32.99;23.41;99176.53;4973960;28;20500;-72
2022/06/12 10:26:30;;;;;;;4.57;3.47;;;;;;;33.36;22.76;99176.06;4974444;28;20069;-72
2022/06/12 10:29:15;;;;;;;6.38;3.47;;;;;;;33.55;22.52;99176.66;4990699;28;20038;-73
2022/06/12 10:32:04;;;;;;;8.27;3.80;;;;;;;33.48;22.75;99173.53;4958454;28;20527;-71
2022/06/12 10:34:33;;;;;;;7.63;3.63;;;;;;;33.70;22.28;99173.47;4974188;28;20520;-72
2022/06/12 10:37:15;;;;;;;8.43;4.00;;;;;;;34.02;22.42;99181.34;4974277;28;20053;-72
2022/06/12 10:39:41;;;;;;;9.00;3.25;;;;;;;33.92;22.40;99176.16;4974175;28;20054;-75
2022/06/12 10:42:44;;;;;;;5.22;3.40;;;;;;;34.19;22.56;99181.34;4990221;28;20042;-73
2022/06/12 10:45:19;;;;;;;5.32;3.05;;;;;;;34.16;22.41;99159.94;4989545;28;20050;-73
2022/06/12 10:47:47;;;;;;;6.35;3.63;;;;;;;34.11;22.75;99179.41;4989996;28;20540;-71
2022/06/12 10:50:19;;;;;;;11.50;3.63;;;;;;;33.87;22.55;99168.81;4974107;28;20472;-74
2022/06/12 10:52:59;;;;;;;6.75;3.80;;;;;;;34.31;22.15;99173.25;4990042;28;20156;-73
2022/06/12 10:55:34;;;;;;;7.38;4.20;;;;;;;34.74;20.86;99173.25;5006567;28;20050;-73
2022/06/12 10:58:15;;;;;;;7.18;3.42;;;;;;;35.05;20.69;99173.84;4958064;28;20069;-74
2022/06/12 11:00:42;;;;;;;7.38;4.60;;;;;;;35.45;20.62;99175.19;4957325;28;20508;-73
2022/06/12 11:03:38;;;;;;;7.80;4.30;;;;;;;35.51;20.00;99149.00;4990378;28;20397;-73
2022/06/12 11:06:13;;;;;;;10.50;4.75;;;;;;;36.15;19.99;99164.22;4957884;28;20137;-72
2022/06/12 11:09:12;;;;;;;8.38;4.18;;;;;;;36.47;19.04;99159.94;4958024;28;20046;-74
2022/06/12 11:11:45;;;;;;;5.20;3.78;;;;;;;36.95;18.72;99165.66;4974197;28;20053;-74
2022/06/12 11:14:21;;;;;;;4.70;3.53;;;;;;;37.57;18.00;99159.84;4974233;28;20110;-74
2022/06/12 11:17:02;;;;;;;6.35;3.20;;;;;;;37.73;18.10;99152.50;4957344;28;20535;-74
2022/06/12 11:19:31;;;;;;;8.50;3.80;;;;;;;37.96;17.47;99131.44;4957666;28;20512;-74
2022/06/12 11:22:03;;;;;;;13.75;3.67;;;;;;;37.89;17.35;99140.34;4975622;28;20053;-73
2022/06/12 11:24:43;;;;;;;7.80;3.72;;;;;;;38.33;16.55;99152.41;4945571;28;20050;-73
2022/06/12 11:27:25;;;;;;;3.65;3.10;;;;;;;38.54;16.49;99156.63;4961610;28;20034;-73
2022/06/12 11:30:32;;;;;;;7.63;3.47;;;;;;;37.99;17.07;99145.41;4977850;28;20509;-74
2022/06/12 11:33:29;;;;;;;12.48;3.38;;;;;;;38.06;17.03;99142.84;4993988;28;20141;-77
2022/06/12 11:35:55;;;;;;;5.30;3.10;;;;;;;37.00;17.80;99112.81;4961613;28;20415;-74
2022/06/12 11:38:40;;;;;;;4.35;3.17;;;;;;;36.75;18.31;99136.06;4961573;28;20043;-74
2022/06/12 11:41:25;;;;;;;7.45;3.15;;;;;;;35.98;18.79;99113.78;4961403;28;20053;-75
2022/06/12 11:43:58;;;;;;;4.70;2.83;;;;;;;35.53;19.77;99128.19;4961414;28;20046;-74
2022/06/12 11:46:30;;;;;;;4.13;2.70;;;;;;;35.68;19.46;99121.28;4961709;28;20141;-74
2022/06/12 11:49:20;;;;;;;8.18;4.45;;;;;;;36.03;19.18;99122.66;4962050;28;20050;-74
2022/06/12 11:52:12;;;;;;;7.80;3.40;;;;;;;36.40;19.18;99110.66;4961539;28;20635;-73
2022/06/12 11:54:53;;;;;;;8.93;4.45;;;;;;;36.52;19.10;99119.00;4961043;28;20133;-74
2022/06/12 11:57:21;;;;;;;6.70;3.03;;;;;;;35.92;19.00;99112.38;4960957;28;20042;-73
2022/06/12 12:00:09;;;;;;;8.38;4.07;;;;;;;35.71;18.98;99098.50;4993287;28;20065;-73
2022/06/12 12:02:56;;;;;;;7.50;3.30;;;;;;;35.87;19.04;99095.97;4977136;28;20049;-74
2022/06/12 12:05:36;;;;;;;4.70;3.05;;;;;;;36.09;18.69;99084.59;4944649;28;20081;-73
2022/06/12 12:08:24;;;;;;;6.28;2.92;;;;;;;36.06;18.51;99099.09;4944900;28;20520;-74